Tamdy, Uzbekistan
Current Conditions -  °F | °C
As of 12:00 PM on Friday 31 Oct 2014 (Local Time) from UTSA Reporting Station
Haze Haze  
Wind Chill: 57°   Ceiling: Unl
Heat Index: 57°   Visibility: 2.9mi
Dew Point: 32°   Wind: 13mph
Humidity: 38%   Direction: 70°ENE
Pressure: 30.21"   Gusts: NA
Location:  41.73°N, 64.62°E
Report Text: UTSA 310700Z 07006MPS 4700 BR NSC 14/M00 Q1023 R07/CLRD70NOSIG
Loading
Personal Weather Stations






























Interactive Weather Map
Tropical Storm Tracking
New forecast layout! Learn more

10-Day Weather Forecast

Advertisements
Track Severe Weather on mobile